createdAt,value
2018-07-26T00:30:33.787Z,26.00
2018-07-26T02:26:15.008Z,24.00
2018-07-26T02:28:41.657Z,24.00
2018-07-26T02:31:08.635Z,27.20
2018-07-26T02:57:57.182Z,24.40
2018-07-26T03:00:23.802Z,25.40
2018-07-26T03:02:50.872Z,30.20
2018-07-26T03:05:17.452Z,28.00
2018-07-26T03:07:43.987Z,27.20
2018-07-26T03:10:11.022Z,21.60
2018-07-26T03:12:37.590Z,20.80
2018-07-26T03:15:04.162Z,20.80
2018-07-26T03:17:30.705Z,22.40
2018-07-26T03:19:57.598Z,19.00
2018-07-26T03:22:24.666Z,27.80
2018-07-26T03:24:51.238Z,24.00
2018-07-26T03:27:18.205Z,25.80
2018-07-26T03:29:44.765Z,26.40
2018-07-26T03:32:11.305Z,27.80
2018-07-26T03:34:37.887Z,26.00
2018-07-26T03:37:04.811Z,23.80
2018-07-26T03:39:31.341Z,25.40
2018-07-26T03:41:58.862Z,22.80
2018-07-26T03:44:25.422Z,20.60
2018-07-26T03:47:30.383Z,25.00
2018-07-26T03:49:56.933Z,26.00
2018-07-26T03:52:23.899Z,22.40
2018-07-26T03:54:50.457Z,22.60
2018-07-26T03:57:17.247Z,20.80
2018-07-26T03:59:43.908Z,21.60
2018-07-26T04:02:10.885Z,24.60
2018-07-26T04:04:37.416Z,22.00
2018-07-26T04:07:06.955Z,24.40
2018-07-26T04:09:33.519Z,22.00
2018-07-26T04:12:00.378Z,19.80
2018-07-26T04:14:27.964Z,23.20
2018-07-26T04:16:54.537Z,20.40
2018-07-26T04:19:21.068Z,21.20
2018-07-26T04:21:48.057Z,19.80
2018-07-26T04:24:15.135Z,20.80
2018-07-26T04:26:41.732Z,16.60
2018-07-26T04:29:08.760Z,16.00
2018-07-26T04:31:36.100Z,11.00
2018-07-26T04:34:02.614Z,19.40
2018-07-26T04:36:30.069Z,19.80
2018-07-26T04:38:56.964Z,23.20
2018-07-26T04:41:23.532Z,16.00
2018-07-26T04:43:51.501Z,18.00
2018-07-26T04:46:18.028Z,21.00
2018-07-26T04:48:44.585Z,24.00
2018-07-26T04:51:12.104Z,23.20
2018-07-26T04:53:38.670Z,26.00
2018-07-26T04:56:05.245Z,24.20
2018-07-26T04:58:32.117Z,21.00
2018-07-26T05:00:58.643Z,19.00
2018-07-26T05:03:25.191Z,23.60
2018-07-26T05:05:52.932Z,21.00
2018-07-26T05:08:22.541Z,16.40
2018-07-26T05:10:49.314Z,16.00
2018-07-26T05:13:16.484Z,14.00
2018-07-26T05:15:43.039Z,18.00
2018-07-26T05:18:09.687Z,16.00
2018-07-26T05:20:36.731Z,17.80
2018-07-26T05:23:03.368Z,18.00
2018-07-26T05:25:30.003Z,13.20
2018-07-26T05:27:56.957Z,15.80
2018-07-26T05:30:23.485Z,10.40
2018-07-26T05:42:41.858Z,23.20
2018-07-26T06:08:28.969Z,25.00
2018-07-26T06:10:55.493Z,24.00
2018-07-26T06:13:22.590Z,26.80
2018-07-26T06:15:49.101Z,24.00
2018-07-26T06:53:41.749Z,17.60
2018-07-26T06:56:08.343Z,11.00
2018-07-26T06:58:36.461Z,11.20
2018-07-26T07:01:03.024Z,14.00
2018-07-26T07:03:29.597Z,11.00
2018-07-26T07:05:56.661Z,14.80
2018-07-26T07:08:23.227Z,11.40
2018-07-26T07:10:50.982Z,10.00
2018-07-26T07:13:19.325Z,10.00
2018-07-26T07:15:46.000Z,8.80
2018-07-26T07:18:12.631Z,11.20
2018-07-26T07:20:39.499Z,10.60
2018-07-26T07:23:06.066Z,11.20
2018-07-26T07:25:33.538Z,10.00
